createdAt,value
2018-08-28T00:00:18.571Z,0
2018-08-28T00:00:59.056Z,0
2018-08-28T00:01:39.527Z,0
2018-08-28T00:02:20.179Z,0
2018-08-28T00:03:00.664Z,0
2018-08-28T00:03:41.137Z,0
2018-08-28T00:04:21.651Z,0
2018-08-28T00:05:02.219Z,0
2018-08-28T00:05:42.675Z,0
2018-08-28T00:06:23.132Z,0
2018-08-28T00:07:03.665Z,0
2018-08-28T00:07:44.145Z,0
2018-08-28T00:08:24.669Z,0
2018-08-28T00:09:05.134Z,0
2018-08-28T00:09:45.680Z,0
2018-08-28T00:10:26.174Z,0
2018-08-28T00:11:06.671Z,0
2018-08-28T00:11:47.143Z,0
2018-08-28T00:12:27.630Z,0
2018-08-28T00:13:08.110Z,0
2018-08-28T00:13:48.578Z,0
2018-08-28T00:14:29.143Z,0
2018-08-28T00:15:09.682Z,0
2018-08-28T00:15:50.123Z,0
2018-08-28T00:16:30.632Z,0
2018-08-28T00:17:11.300Z,0
2018-08-28T00:17:51.621Z,0
2018-08-28T00:18:32.091Z,0
2018-08-28T00:19:12.621Z,0
2018-08-28T00:19:53.116Z,0
2018-08-28T00:20:33.578Z,0
2018-08-28T00:21:14.050Z,0
2018-08-28T00:21:54.564Z,0
2018-08-28T00:22:35.051Z,0
2018-08-28T00:23:15.555Z,0
2018-08-28T00:23:56.082Z,0
2018-08-28T00:24:36.574Z,0
2018-08-28T00:25:17.105Z,0
2018-08-28T00:25:57.601Z,0
2018-08-28T00:26:38.129Z,0
2018-08-28T00:27:18.761Z,0
2018-08-28T00:27:59.325Z,0
2018-08-28T00:28:39.779Z,0
2018-08-28T00:29:20.293Z,0
2018-08-28T00:30:00.836Z,0
2018-08-28T00:30:41.334Z,0
2018-08-28T00:31:21.900Z,0
2018-08-28T00:32:02.322Z,0
2018-08-28T00:32:42.839Z,0
2018-08-28T00:33:23.304Z,0
2018-08-28T00:34:03.793Z,0
2018-08-28T00:34:44.420Z,0
2018-08-28T00:35:24.980Z,0
2018-08-28T00:36:05.431Z,0
2018-08-28T00:36:45.921Z,0
2018-08-28T00:37:26.424Z,0
2018-08-28T00:38:06.910Z,0
2018-08-28T00:38:47.407Z,0
2018-08-28T00:39:27.971Z,0
2018-08-28T00:40:08.432Z,0
2018-08-28T00:40:48.934Z,0
2018-08-28T00:41:29.368Z,0
2018-08-28T00:42:09.946Z,0
2018-08-28T00:42:50.432Z,0
2018-08-28T00:43:30.890Z,0
2018-08-28T00:44:11.375Z,0
2018-08-28T00:44:51.857Z,0
2018-08-28T00:45:32.381Z,0
2018-08-28T00:46:12.971Z,0
2018-08-28T00:46:53.430Z,0
2018-08-28T00:47:33.944Z,0
2018-08-28T00:48:14.428Z,0
2018-08-28T00:48:54.912Z,0
2018-08-28T00:49:35.417Z,0
2018-08-28T00:50:15.880Z,0
2018-08-28T00:50:56.376Z,0
2018-08-28T00:51:36.862Z,0
2018-08-28T00:52:17.362Z,0
2018-08-28T00:52:57.825Z,0
2018-08-28T00:53:38.319Z,0
2018-08-28T00:54:18.864Z,0
2018-08-28T00:54:59.372Z,0
2018-08-28T00:55:39.999Z,0
2018-08-28T00:56:20.580Z,0
2018-08-28T00:57:01.102Z,0
2018-08-28T00:57:41.583Z,0
2018-08-28T00:58:22.063Z,0
2018-08-28T00:59:02.556Z,0
2018-08-28T00:59:43.067Z,0
2018-08-28T01:00:23.612Z,0
2018-08-28T01:01:04.069Z,0
2018-08-28T01:01:44.554Z,0
2018-08-28T01:02:25.062Z,0
2018-08-28T01:03:05.545Z,0
2018-08-28T01:03:46.099Z,0
2018-08-28T01:04:26.551Z,0
2018-08-28T01:05:06.993Z,0
2018-08-28T01:05:47.522Z,0
2018-08-28T01:06:27.978Z,0
2018-08-28T01:07:08.505Z,0
2018-08-28T01:07:48.952Z,0
2018-08-28T01:08:29.434Z,0
2018-08-28T01:09:09.949Z,0
2018-08-28T01:09:50.448Z,0
2018-08-28T01:10:30.858Z,0
2018-08-28T01:11:11.398Z,0
2018-08-28T01:11:51.854Z,0
2018-08-28T01:12:32.402Z,0
2018-08-28T01:13:12.918Z,0
2018-08-28T01:13:53.422Z,0
2018-08-28T01:14:33.911Z,0
2018-08-28T01:15:14.395Z,0
2018-08-28T01:15:54.847Z,0
2018-08-28T01:16:35.382Z,0
2018-08-28T01:17:15.863Z,0
2018-08-28T01:17:56.395Z,0
2018-08-28T01:18:36.867Z,0
2018-08-28T01:19:17.339Z,0
2018-08-28T01:19:57.848Z,0
2018-08-28T01:20:38.496Z,0
2018-08-28T01:21:18.954Z,0
2018-08-28T01:21:59.459Z,0
2018-08-28T01:22:39.957Z,0
2018-08-28T01:23:20.482Z,0
2018-08-28T01:24:01.007Z,0
2018-08-28T01:24:41.487Z,0
2018-08-28T01:25:21.997Z,0
2018-08-28T01:26:03.431Z,0
2018-08-28T01:26:43.992Z,0
2018-08-28T01:27:24.492Z,0
2018-08-28T01:28:04.988Z,0
2018-08-28T01:28:45.503Z,0
2018-08-28T01:29:25.969Z,0
2018-08-28T01:30:06.608Z,0
2018-08-28T01:30:47.071Z,0
2018-08-28T01:31:27.573Z,0
2018-08-28T01:32:08.564Z,0
2018-08-28T01:32:49.041Z,0
2018-08-28T01:33:29.584Z,0
2018-08-28T01:34:10.141Z,0
2018-08-28T01:34:50.671Z,0
2018-08-28T01:35:31.164Z,0
2018-08-28T01:36:11.668Z,0
2018-08-28T01:36:52.140Z,0
2018-08-28T01:37:32.725Z,0
2018-08-28T01:38:13.254Z,0
2018-08-28T01:38:53.694Z,0
2018-08-28T01:39:34.210Z,0
2018-08-28T01:40:14.722Z,0
2018-08-28T01:40:55.219Z,0
2018-08-28T01:41:35.699Z,0
2018-08-28T01:42:16.233Z,0
2018-08-28T01:42:56.665Z,0
2018-08-28T01:43:37.167Z,0
2018-08-28T01:44:17.717Z,0
2018-08-28T01:44:58.221Z,0
2018-08-28T01:45:38.684Z,0
2018-08-28T01:46:19.176Z,0
2018-08-28T01:46:59.675Z,0
2018-08-28T01:47:40.153Z,0
2018-08-28T01:48:20.719Z,0
2018-08-28T01:49:01.231Z,0
2018-08-28T01:49:41.704Z,0
2018-08-28T01:50:22.224Z,0
2018-08-28T01:51:02.707Z,0
2018-08-28T01:51:43.228Z,0
2018-08-28T01:52:23.699Z,0
2018-08-28T01:53:04.236Z,0
2018-08-28T01:53:44.708Z,0
2018-08-28T01:54:25.331Z,0
2018-08-28T01:55:05.811Z,0
2018-08-28T01:55:46.308Z,0
2018-08-28T01:56:26.791Z,0
2018-08-28T01:57:07.438Z,0
2018-08-28T01:57:47.995Z,0
2018-08-28T01:58:28.451Z,0
2018-08-28T01:59:08.947Z,0
2018-08-28T01:59:49.434Z,0
2018-08-28T02:00:29.969Z,0
2018-08-28T02:01:11.061Z,0
2018-08-28T02:01:51.584Z,0
2018-08-28T02:02:32.075Z,0
2018-08-28T02:03:12.510Z,0
2018-08-28T02:03:53.037Z,0
2018-08-28T02:04:33.499Z,0
2018-08-28T02:05:14.025Z,0
2018-08-28T02:05:54.499Z,0
2018-08-28T02:06:34.972Z,0
2018-08-28T02:07:15.494Z,0
2018-08-28T02:07:55.943Z,0
2018-08-28T02:08:36.437Z,0
2018-08-28T02:09:16.958Z,0
2018-08-28T02:09:57.418Z,0
2018-08-28T02:10:38.029Z,0
2018-08-28T02:11:18.520Z,0
2018-08-28T02:11:58.971Z,0
2018-08-28T02:12:39.505Z,0
2018-08-28T02:13:19.976Z,0
2018-08-28T02:14:00.454Z,0
2018-08-28T02:14:40.955Z,0
2018-08-28T02:15:21.428Z,0
2018-08-28T02:16:01.941Z,0
2018-08-28T02:16:42.452Z,0
2018-08-28T02:17:22.976Z,0
2018-08-28T02:18:03.455Z,0
2018-08-28T02:18:43.953Z,0
2018-08-28T02:19:24.452Z,0
2018-08-28T02:20:04.932Z,0
2018-08-28T02:20:45.459Z,0
2018-08-28T02:21:25.992Z,0
2018-08-28T02:22:06.528Z,0
2018-08-28T02:22:47.148Z,0
2018-08-28T02:23:27.685Z,0
2018-08-28T02:24:08.156Z,0
2018-08-28T02:24:48.656Z,0
2018-08-28T02:25:29.270Z,0
2018-08-28T02:26:09.701Z,0
2018-08-28T02:26:50.199Z,0
2018-08-28T02:27:30.679Z,0
2018-08-28T02:28:11.151Z,0
2018-08-28T02:28:51.648Z,0
2018-08-28T02:29:32.190Z,0
2018-08-28T02:30:12.669Z,0
2018-08-28T02:30:53.195Z,0
2018-08-28T02:31:34.406Z,0
2018-08-28T02:32:14.823Z,0
2018-08-28T02:32:55.360Z,0
2018-08-28T02:33:35.861Z,0
2018-08-28T02:34:16.306Z,0
2018-08-28T02:34:56.829Z,0
2018-08-28T02:35:37.280Z,0
2018-08-28T02:36:17.810Z,0
2018-08-28T02:36:58.296Z,0
2018-08-28T02:37:38.810Z,0
2018-08-28T02:38:19.327Z,0
2018-08-28T02:38:59.800Z,0
2018-08-28T02:39:41.080Z,0
2018-08-28T02:40:21.481Z,0
2018-08-28T02:41:02.038Z,0
2018-08-28T02:41:42.516Z,0
2018-08-28T02:42:22.994Z,0
2018-08-28T02:43:03.484Z,0
2018-08-28T02:43:43.980Z,0
2018-08-28T02:44:24.470Z,0
2018-08-28T02:45:04.977Z,0
2018-08-28T02:45:45.788Z,0
2018-08-28T02:46:26.287Z,0
2018-08-28T02:47:06.847Z,0
2018-08-28T02:47:47.390Z,0
2018-08-28T02:48:27.869Z,0
2018-08-28T02:49:08.395Z,0
2018-08-28T02:49:48.861Z,0
2018-08-28T02:50:29.376Z,0
2018-08-28T02:51:09.945Z,0
2018-08-28T02:51:50.488Z,0
2018-08-28T02:52:31.021Z,0
2018-08-28T02:53:11.507Z,0
2018-08-28T02:53:52.007Z,0
2018-08-28T02:54:32.450Z,0
2018-08-28T02:55:12.965Z,0
2018-08-28T02:55:53.487Z,0
2018-08-28T02:56:33.956Z,0
2018-08-28T02:57:14.476Z,0
2018-08-28T02:57:54.972Z,0
2018-08-28T02:58:35.544Z,0
2018-08-28T02:59:16.053Z,0
2018-08-28T02:59:56.601Z,0
2018-08-28T03:00:37.042Z,0
2018-08-28T03:01:17.569Z,0
2018-08-28T03:01:58.047Z,0
2018-08-28T03:02:38.548Z,0
2018-08-28T03:03:19.075Z,0
2018-08-28T03:03:59.537Z,0
2018-08-28T03:04:40.023Z,0
2018-08-28T03:05:20.571Z,0
2018-08-28T03:07:49.167Z,0
2018-08-28T03:08:29.653Z,0
2018-08-28T03:09:10.169Z,0
2018-08-28T03:09:50.627Z,0
2018-08-28T03:10:31.135Z,0
2018-08-28T03:11:11.662Z,0
2018-08-28T03:11:52.073Z,0
2018-08-28T03:12:32.571Z,0
2018-08-28T03:13:13.063Z,0
2018-08-28T03:13:53.599Z,0
2018-08-28T03:14:34.082Z,0
2018-08-28T03:15:14.582Z,0
2018-08-28T03:15:55.116Z,0
2018-08-28T03:16:35.644Z,0
2018-08-28T03:17:16.167Z,0
2018-08-28T03:17:56.600Z,0
2018-08-28T03:18:37.139Z,0
2018-08-28T03:19:17.818Z,0
2018-08-28T03:19:58.304Z,0
2018-08-28T03:20:38.819Z,0
2018-08-28T03:21:19.315Z,0
2018-08-28T03:21:59.822Z,0
2018-08-28T03:22:40.353Z,0
2018-08-28T03:23:20.841Z,0
2018-08-28T03:24:01.355Z,0
2018-08-28T03:24:41.917Z,0
2018-08-28T03:25:22.528Z,0
2018-08-28T03:26:03.041Z,0
2018-08-28T03:26:43.529Z,0
2018-08-28T03:27:24.071Z,0
2018-08-28T03:28:04.566Z,0
2018-08-28T03:28:45.053Z,0
2018-08-28T03:29:25.547Z,0
2018-08-28T03:30:06.522Z,0
2018-08-28T03:30:47.052Z,0
2018-08-28T03:31:27.513Z,0
2018-08-28T03:32:08.039Z,0
2018-08-28T03:32:48.579Z,0
2018-08-28T03:33:29.063Z,0
2018-08-28T03:34:09.538Z,0
2018-08-28T03:34:50.041Z,0
2018-08-28T03:35:30.509Z,0
2018-08-28T03:36:10.971Z,0
2018-08-28T03:36:51.519Z,0
2018-08-28T03:37:32.012Z,0
2018-08-28T03:38:12.574Z,0
2018-08-28T03:38:53.113Z,0
2018-08-28T03:39:33.810Z,0
2018-08-28T03:40:14.299Z,0
2018-08-28T03:40:54.818Z,0
2018-08-28T03:41:35.306Z,0
2018-08-28T03:42:15.841Z,0
2018-08-28T03:42:56.333Z,0
2018-08-28T03:43:36.858Z,0
2018-08-28T03:44:17.485Z,0
2018-08-28T03:44:57.956Z,0
2018-08-28T03:45:38.403Z,0
2018-08-28T03:46:18.912Z,0
2018-08-28T03:46:59.482Z,0
2018-08-28T03:47:40.012Z,0
2018-08-28T03:48:20.473Z,0
2018-08-28T03:49:01.087Z,0
2018-08-28T03:49:41.540Z,0
2018-08-28T03:50:22.028Z,0
2018-08-28T03:51:02.562Z,0
2018-08-28T03:51:43.069Z,0
2018-08-28T03:52:23.820Z,0
2018-08-28T03:53:04.347Z,0
2018-08-28T03:53:45.142Z,0
2018-08-28T03:54:25.362Z,0
2018-08-28T03:55:07.535Z,0
2018-08-28T03:55:47.294Z,0
2018-08-28T03:56:27.746Z,0
2018-08-28T03:57:08.277Z,0
2018-08-28T03:57:48.767Z,0
2018-08-28T03:58:29.275Z,0
2018-08-28T03:59:09.767Z,0
2018-08-28T03:59:50.225Z,0
2018-08-28T04:00:30.715Z,0
2018-08-28T04:01:11.242Z,0
2018-08-28T04:01:51.723Z,0
2018-08-28T04:02:32.228Z,0
2018-08-28T04:03:12.785Z,0
2018-08-28T04:03:53.305Z,0
2018-08-28T04:04:33.891Z,0
2018-08-28T04:05:14.363Z,0
2018-08-28T04:05:54.869Z,0
2018-08-28T04:06:35.389Z,0
2018-08-28T04:07:15.985Z,0
2018-08-28T04:07:56.551Z,0
2018-08-28T04:08:37.189Z,0
2018-08-28T04:09:17.679Z,0
2018-08-28T04:09:58.189Z,0
2018-08-28T04:10:38.672Z,0
2018-08-28T04:11:19.151Z,0
2018-08-28T04:11:59.651Z,0
2018-08-28T04:12:40.125Z,0
2018-08-28T04:13:20.696Z,0
2018-08-28T04:14:01.736Z,0
2018-08-28T04:14:42.214Z,0
2018-08-28T04:15:22.678Z,0
2018-08-28T04:16:03.214Z,0
2018-08-28T04:16:43.721Z,0
2018-08-28T04:17:24.207Z,0
2018-08-28T04:18:04.716Z,0
2018-08-28T04:18:45.213Z,0
2018-08-28T04:19:25.725Z,0
2018-08-28T04:20:06.256Z,0
2018-08-28T04:20:46.725Z,0
2018-08-28T04:21:27.522Z,0
2018-08-28T04:22:08.062Z,0
2018-08-28T04:22:48.523Z,0
2018-08-28T04:23:29.012Z,0
2018-08-28T04:24:09.504Z,0
2018-08-28T04:24:50.031Z,0
2018-08-28T04:25:30.480Z,0
2018-08-28T04:26:10.971Z,0
2018-08-28T04:26:51.460Z,0
2018-08-28T04:27:31.917Z,0
2018-08-28T04:28:12.460Z,0
2018-08-28T04:28:52.921Z,0
2018-08-28T04:29:33.445Z,0
2018-08-28T04:30:13.935Z,0
2018-08-28T04:30:54.611Z,5
2018-08-28T04:31:34.998Z,5
2018-08-28T04:32:15.509Z,5
2018-08-28T04:32:56.072Z,5
2018-08-28T04:33:36.471Z,5
2018-08-28T04:34:16.972Z,5
2018-08-28T04:34:57.458Z,5
2018-08-28T04:35:37.978Z,5
2018-08-28T04:36:18.549Z,5
2018-08-28T04:36:59.010Z,5
2018-08-28T04:37:39.540Z,5
2018-08-28T04:38:20.035Z,5
2018-08-28T04:39:00.557Z,5
2018-08-28T04:39:41.022Z,10
2018-08-28T04:41:54.441Z,10
2018-08-28T04:42:34.848Z,10
2018-08-28T04:43:15.334Z,10
2018-08-28T04:43:55.870Z,10
2018-08-28T04:44:36.357Z,15
2018-08-28T04:45:16.870Z,15
2018-08-28T04:45:57.392Z,15
2018-08-28T04:46:37.885Z,15
2018-08-28T04:47:18.388Z,15
2018-08-28T04:47:58.918Z,15
2018-08-28T04:48:39.759Z,20
2018-08-28T04:49:20.234Z,20
2018-08-28T04:50:00.737Z,20
2018-08-28T04:50:41.212Z,20
2018-08-28T04:51:21.957Z,25
2018-08-28T04:52:02.414Z,25
2018-08-28T04:52:42.935Z,25
2018-08-28T04:53:23.452Z,25
2018-08-28T04:54:04.034Z,25
2018-08-28T04:54:44.508Z,30
2018-08-28T04:55:25.031Z,30
2018-08-28T04:56:05.624Z,30
2018-08-28T04:56:46.146Z,30
2018-08-28T04:57:26.595Z,35
2018-08-28T04:58:07.237Z,35
2018-08-28T04:58:47.756Z,35
2018-08-28T04:59:28.273Z,35
2018-08-28T05:00:08.746Z,35
2018-08-28T05:00:49.547Z,35
2018-08-28T05:01:29.895Z,35
2018-08-28T05:02:10.380Z,35
2018-08-28T05:02:50.906Z,40
2018-08-28T05:03:31.464Z,40
2018-08-28T05:04:11.994Z,40
2018-08-28T05:04:52.479Z,40
2018-08-28T05:05:33.004Z,45
2018-08-28T05:06:13.489Z,45
2018-08-28T05:06:53.963Z,45
2018-08-28T05:07:34.466Z,45
2018-08-28T05:08:14.936Z,45
2018-08-28T05:08:55.415Z,50
2018-08-28T05:09:35.915Z,50
2018-08-28T05:10:16.396Z,50
2018-08-28T05:10:56.878Z,50
2018-08-28T05:11:37.405Z,50
2018-08-28T05:12:17.899Z,55
2018-08-28T05:12:58.429Z,55
2018-08-28T05:13:38.930Z,55
2018-08-28T05:14:19.453Z,55
2018-08-28T05:14:59.949Z,55
2018-08-28T05:15:40.492Z,60
2018-08-28T05:16:24.205Z,60
2018-08-28T05:17:04.674Z,60
2018-08-28T05:17:45.161Z,60
2018-08-28T05:18:25.666Z,65
2018-08-28T05:19:06.223Z,65
2018-08-28T05:19:46.872Z,65
2018-08-28T05:20:27.398Z,65
2018-08-28T05:21:07.860Z,70
2018-08-28T05:21:48.394Z,70
2018-08-28T05:22:28.970Z,70
2018-08-28T05:23:09.468Z,70
2018-08-28T05:23:49.977Z,70
2018-08-28T05:24:30.532Z,75
2018-08-28T05:25:11.025Z,75
2018-08-28T05:25:51.569Z,75
2018-08-28T05:26:32.088Z,75
2018-08-28T05:27:12.609Z,75
2018-08-28T05:27:53.107Z,75
2018-08-28T05:28:33.563Z,75
2018-08-28T05:29:14.057Z,80
2018-08-28T05:29:54.552Z,80
2018-08-28T05:30:35.196Z,80
2018-08-28T05:31:15.529Z,80
2018-08-28T05:31:55.997Z,80
2018-08-28T05:32:36.483Z,80
2018-08-28T05:33:17.013Z,80
2018-08-28T05:33:57.484Z,85
2018-08-28T05:34:37.992Z,85
2018-08-28T05:35:18.480Z,85
2018-08-28T05:35:58.944Z,85
2018-08-28T05:36:39.583Z,85
2018-08-28T05:37:20.013Z,85
2018-08-28T05:38:00.638Z,90
2018-08-28T05:38:41.106Z,90
2018-08-28T05:39:21.519Z,90
2018-08-28T05:40:03.251Z,90
2018-08-28T05:40:43.609Z,90
2018-08-28T05:41:24.104Z,95
2018-08-28T05:42:04.672Z,95
2018-08-28T05:42:45.073Z,95
2018-08-28T05:43:25.577Z,95
2018-08-28T05:44:06.095Z,100
2018-08-28T05:44:46.609Z,100
2018-08-28T05:45:27.055Z,100
2018-08-28T05:46:07.562Z,105
2018-08-28T05:46:48.054Z,105
2018-08-28T05:47:28.655Z,105
2018-08-28T05:48:09.072Z,105
2018-08-28T05:48:49.590Z,105
2018-08-28T05:49:30.169Z,105
2018-08-28T05:50:10.604Z,105
2018-08-28T05:50:51.238Z,110
2018-08-28T05:51:31.784Z,110
2018-08-28T05:52:13.200Z,110
2018-08-28T05:52:53.747Z,110
2018-08-28T05:53:34.293Z,110
2018-08-28T05:54:14.827Z,115
2018-08-28T05:54:55.366Z,115
2018-08-28T05:55:36.058Z,115
2018-08-28T05:56:16.677Z,120
2018-08-28T05:56:57.234Z,120
2018-08-28T05:57:37.700Z,120
2018-08-28T05:58:18.240Z,120
2018-08-28T05:58:58.730Z,120
2018-08-28T05:59:39.196Z,125
2018-08-28T06:00:19.760Z,125
2018-08-28T06:01:00.245Z,125
2018-08-28T06:01:40.758Z,125
2018-08-28T06:02:21.376Z,125
2018-08-28T06:03:01.775Z,125
2018-08-28T06:03:42.252Z,125
2018-08-28T06:04:22.867Z,130
2018-08-28T06:05:03.367Z,130
2018-08-28T06:05:43.864Z,130
2018-08-28T06:06:24.517Z,130
2018-08-28T06:07:05.095Z,130
2018-08-28T06:07:45.643Z,130
2018-08-28T06:08:26.090Z,130
2018-08-28T06:09:06.662Z,130
2018-08-28T06:09:47.377Z,130
2018-08-28T06:10:27.845Z,130
2018-08-28T06:11:08.324Z,130
2018-08-28T06:11:48.797Z,135
2018-08-28T06:14:02.019Z,135
2018-08-28T06:14:42.534Z,140
2018-08-28T06:15:23.018Z,135
2018-08-28T06:16:03.538Z,135
2018-08-28T06:16:44.018Z,135
2018-08-28T06:17:24.505Z,135
2018-08-28T06:18:05.138Z,135
2018-08-28T06:18:45.638Z,135
2018-08-28T06:19:26.385Z,135
2018-08-28T06:20:06.657Z,135
2018-08-28T06:20:47.203Z,135
2018-08-28T06:21:27.667Z,135
2018-08-28T06:22:08.175Z,135
2018-08-28T06:22:48.638Z,135
2018-08-28T06:23:29.133Z,135
2018-08-28T06:24:09.637Z,135
2018-08-28T06:24:50.096Z,135
2018-08-28T06:25:30.587Z,135
2018-08-28T06:26:11.067Z,135
2018-08-28T06:26:51.514Z,135
2018-08-28T06:27:32.284Z,135
2018-08-28T06:28:12.766Z,135
2018-08-28T06:28:53.237Z,135
2018-08-28T06:29:33.906Z,135
2018-08-28T06:30:14.455Z,140
2018-08-28T06:30:54.929Z,140
2018-08-28T06:31:35.447Z,140
2018-08-28T06:32:15.929Z,140
2018-08-28T06:32:56.448Z,140
2018-08-28T06:33:36.935Z,145
2018-08-28T06:34:17.446Z,145
2018-08-28T06:34:57.946Z,145
2018-08-28T06:35:38.442Z,145
2018-08-28T06:36:19.104Z,145
2018-08-28T06:36:59.596Z,145
2018-08-28T06:37:40.142Z,145
2018-08-28T06:38:20.589Z,145
2018-08-28T06:39:01.091Z,140
2018-08-28T06:39:41.621Z,145
2018-08-28T06:40:22.112Z,145
2018-08-28T06:41:02.599Z,145
2018-08-28T06:41:43.131Z,150
2018-08-28T06:42:23.568Z,140
2018-08-28T06:43:04.138Z,145
2018-08-28T06:43:44.677Z,145
2018-08-28T06:44:25.133Z,145
2018-08-28T06:45:05.657Z,145
2018-08-28T06:45:46.164Z,150
2018-08-28T06:46:26.641Z,150
2018-08-28T06:47:07.263Z,145
2018-08-28T06:47:47.729Z,145
2018-08-28T06:48:28.150Z,150
2018-08-28T06:49:08.702Z,150
2018-08-28T06:49:49.157Z,155
2018-08-28T06:50:29.799Z,155
2018-08-28T06:51:10.367Z,155
2018-08-28T06:51:50.820Z,155
2018-08-28T06:52:31.348Z,155
2018-08-28T06:53:11.862Z,155
2018-08-28T06:53:52.688Z,155
2018-08-28T06:54:33.147Z,155
2018-08-28T06:55:13.648Z,155
2018-08-28T06:55:54.143Z,155
2018-08-28T06:56:34.607Z,155
2018-08-28T06:57:15.221Z,155
2018-08-28T06:57:55.708Z,155
2018-08-28T06:58:36.172Z,155
2018-08-28T06:59:16.700Z,150
2018-08-28T06:59:57.189Z,150
2018-08-28T07:00:37.671Z,150
2018-08-28T07:01:18.164Z,155
2018-08-28T07:01:58.665Z,155
2018-08-28T07:02:39.187Z,155
2018-08-28T07:03:19.652Z,160
2018-08-28T07:04:00.182Z,165
2018-08-28T07:04:40.942Z,165
2018-08-28T07:05:21.411Z,170
2018-08-28T07:06:01.923Z,170
2018-08-28T07:06:42.499Z,175
2018-08-28T07:07:23.061Z,175
2018-08-28T07:08:03.613Z,180
2018-08-28T07:08:44.017Z,175
2018-08-28T07:09:24.495Z,175
2018-08-28T07:10:05.065Z,175
2018-08-28T07:10:45.697Z,180
2018-08-28T07:11:26.068Z,180
2018-08-28T07:12:06.569Z,180
2018-08-28T07:12:47.108Z,180
2018-08-28T07:13:27.563Z,180
2018-08-28T07:14:08.113Z,180
2018-08-28T07:14:48.673Z,180
2018-08-28T07:15:29.207Z,180
2018-08-28T07:16:09.727Z,180
2018-08-28T07:16:50.206Z,185
2018-08-28T07:17:30.714Z,180
2018-08-28T07:18:11.275Z,185
2018-08-28T07:18:51.900Z,180
2018-08-28T07:19:32.245Z,180
2018-08-28T07:20:12.804Z,185
2018-08-28T07:20:53.277Z,185
2018-08-28T07:23:06.486Z,195
2018-08-28T07:23:46.967Z,195
2018-08-28T07:26:00.247Z,190
2018-08-28T07:26:40.769Z,190
2018-08-28T07:27:21.268Z,190
2018-08-28T07:28:01.767Z,190
2018-08-28T07:28:42.315Z,185
2018-08-28T07:29:23.023Z,190
2018-08-28T07:30:03.473Z,185
2018-08-28T07:30:44.006Z,185
2018-08-28T07:31:24.555Z,180
2018-08-28T07:32:05.023Z,180
2018-08-28T07:32:45.500Z,185
2018-08-28T07:33:25.996Z,180
2018-08-28T07:34:06.570Z,175
2018-08-28T07:34:47.059Z,175
2018-08-28T07:35:27.495Z,170
2018-08-28T07:36:08.401Z,175
2018-08-28T07:36:48.872Z,175
2018-08-28T07:37:29.436Z,175
2018-08-28T07:38:09.884Z,170
2018-08-28T07:38:50.393Z,170
2018-08-28T07:39:30.820Z,175
2018-08-28T07:40:11.344Z,175
2018-08-28T07:40:51.843Z,175
2018-08-28T07:41:32.299Z,175
2018-08-28T07:42:12.819Z,175
2018-08-28T07:42:53.451Z,170
2018-08-28T07:43:33.903Z,155
2018-08-28T07:44:14.565Z,165
2018-08-28T07:44:55.180Z,165
2018-08-28T07:45:35.622Z,160
2018-08-28T07:46:16.173Z,165
2018-08-28T07:46:56.705Z,170
2018-08-28T07:47:37.181Z,175
2018-08-28T07:48:17.666Z,170
2018-08-28T07:48:59.040Z,165
2018-08-28T07:49:38.651Z,170
2018-08-28T07:50:19.138Z,175
2018-08-28T07:50:59.637Z,170
2018-08-28T07:51:40.122Z,180
2018-08-28T07:52:20.617Z,180
2018-08-28T07:53:01.158Z,180
2018-08-28T07:53:41.646Z,180
2018-08-28T07:54:22.132Z,180
2018-08-28T07:55:02.588Z,180
2018-08-28T07:55:43.122Z,175
2018-08-28T07:56:23.650Z,175
2018-08-28T07:57:05.734Z,175
2018-08-28T07:57:46.229Z,170
2018-08-28T07:58:26.735Z,170
2018-08-28T07:59:07.218Z,170
2018-08-28T07:59:47.680Z,170
2018-08-28T08:00:28.276Z,170
2018-08-28T08:01:08.735Z,170
2018-08-28T08:01:49.265Z,170
2018-08-28T08:02:30.185Z,170
2018-08-28T08:03:10.669Z,175
2018-08-28T08:03:51.211Z,170
2018-08-28T08:04:31.668Z,170
2018-08-28T08:05:12.215Z,170
2018-08-28T08:05:52.721Z,170
2018-08-28T08:06:33.246Z,170
2018-08-28T08:07:13.755Z,170
2018-08-28T08:07:54.221Z,170
2018-08-28T08:08:34.689Z,170
2018-08-28T08:09:15.177Z,170
2018-08-28T08:09:55.675Z,170
2018-08-28T08:10:36.175Z,170
2018-08-28T08:11:16.629Z,170
2018-08-28T08:11:57.154Z,170
2018-08-28T08:12:37.629Z,170
2018-08-28T08:13:18.464Z,170
2018-08-28T08:13:59.557Z,170
2018-08-28T08:14:40.129Z,170
2018-08-28T08:15:20.624Z,170
2018-08-28T08:16:01.213Z,170
2018-08-28T08:16:41.782Z,165
2018-08-28T08:17:22.273Z,165
2018-08-28T08:18:02.822Z,165
2018-08-28T08:18:43.213Z,165
2018-08-28T08:19:24.044Z,165
2018-08-28T08:20:04.489Z,160
2018-08-28T08:20:45.010Z,160
2018-08-28T08:21:25.707Z,160
2018-08-28T08:22:06.195Z,160
2018-08-28T08:22:46.757Z,165
2018-08-28T08:23:27.257Z,165
2018-08-28T08:24:07.774Z,165
2018-08-28T08:24:48.225Z,165
2018-08-28T08:25:28.807Z,165
2018-08-28T08:26:09.316Z,165
2018-08-28T08:26:49.742Z,165
2018-08-28T08:27:30.244Z,165
2018-08-28T08:28:10.994Z,165
2018-08-28T08:28:51.349Z,165
2018-08-28T08:29:31.812Z,165
2018-08-28T08:30:12.386Z,165
2018-08-28T08:30:52.839Z,165
2018-08-28T08:31:33.294Z,165
2018-08-28T08:32:14.263Z,165
2018-08-28T08:32:54.760Z,165
2018-08-28T08:33:35.249Z,165
2018-08-28T08:34:15.755Z,165
2018-08-28T08:34:56.247Z,165
2018-08-28T08:35:36.736Z,165
2018-08-28T08:36:17.291Z,165
2018-08-28T08:36:57.863Z,165
2018-08-28T08:37:38.388Z,160
2018-08-28T08:38:18.867Z,160
2018-08-28T08:38:59.797Z,160
2018-08-28T08:39:40.261Z,160
2018-08-28T08:40:20.949Z,160
2018-08-28T08:41:01.454Z,160
2018-08-28T08:41:41.952Z,160
2018-08-28T08:42:22.499Z,160
2018-08-28T08:43:02.987Z,160
2018-08-28T08:43:43.574Z,155
2018-08-28T08:44:24.092Z,155
2018-08-28T08:45:04.643Z,155
2018-08-28T08:45:45.088Z,155
2018-08-28T08:46:25.588Z,155
2018-08-28T08:47:06.053Z,155
2018-08-28T08:47:46.520Z,155
2018-08-28T08:48:26.988Z,155
2018-08-28T08:49:07.507Z,155
2018-08-28T08:49:48.003Z,155
2018-08-28T08:50:28.499Z,155
2018-08-28T08:51:08.986Z,155
2018-08-28T08:51:49.553Z,155
2018-08-28T08:52:30.169Z,155
2018-08-28T08:53:10.659Z,150
2018-08-28T08:53:51.220Z,150
2018-08-28T08:54:32.582Z,150
2018-08-28T08:55:13.100Z,150
2018-08-28T08:55:53.742Z,150
2018-08-28T08:56:34.236Z,150
2018-08-28T08:57:14.738Z,145
2018-08-28T08:57:55.213Z,150
2018-08-28T08:58:35.728Z,150
2018-08-28T08:59:16.270Z,150
2018-08-28T08:59:56.714Z,150
2018-08-28T09:00:37.361Z,150
2018-08-28T09:01:17.869Z,150
2018-08-28T09:01:58.387Z,150
2018-08-28T09:02:38.925Z,150
2018-08-28T09:03:19.435Z,150
2018-08-28T09:03:59.975Z,150
2018-08-28T09:04:40.429Z,150
2018-08-28T09:05:20.919Z,150
2018-08-28T09:06:01.465Z,150
2018-08-28T09:06:41.895Z,150
2018-08-28T09:07:22.385Z,150
2018-08-28T09:08:02.934Z,145
2018-08-28T09:08:43.630Z,145
2018-08-28T09:09:24.124Z,145
2018-08-28T09:10:04.749Z,145
2018-08-28T09:10:45.219Z,145
2018-08-28T09:11:25.753Z,145
2018-08-28T09:12:06.264Z,145
2018-08-28T09:12:46.731Z,145
2018-08-28T09:13:27.287Z,145
2018-08-28T09:14:07.724Z,145
2018-08-28T09:14:48.195Z,145
2018-08-28T09:15:28.790Z,145
2018-08-28T09:16:09.448Z,145
2018-08-28T09:16:50.312Z,145
2018-08-28T09:17:30.878Z,145
2018-08-28T09:18:11.451Z,145
2018-08-28T09:18:51.915Z,145
2018-08-28T09:19:32.400Z,145
2018-08-28T09:20:12.878Z,145
2018-08-28T09:20:53.374Z,140
2018-08-28T09:21:33.880Z,140
2018-08-28T09:22:14.388Z,140
2018-08-28T09:22:54.892Z,140
2018-08-28T09:23:35.451Z,140
2018-08-28T09:24:16.011Z,140
2018-08-28T09:24:56.457Z,140
2018-08-28T09:25:36.939Z,140
2018-08-28T09:26:17.514Z,140
2018-08-28T09:26:58.026Z,135
2018-08-28T09:27:38.526Z,135
2018-08-28T09:28:19.023Z,135
2018-08-28T09:28:59.500Z,135
2018-08-28T09:29:39.977Z,135
2018-08-28T09:30:20.508Z,135
2018-08-28T09:31:01.094Z,135
2018-08-28T09:31:41.592Z,135
2018-08-28T09:32:22.072Z,135
2018-08-28T09:33:02.541Z,135
2018-08-28T09:33:43.004Z,130
2018-08-28T09:34:23.518Z,130
2018-08-28T09:35:04.050Z,130
2018-08-28T09:35:44.606Z,130
2018-08-28T09:36:25.105Z,130
2018-08-28T09:37:05.757Z,130
2018-08-28T09:37:46.802Z,130
2018-08-28T09:38:27.430Z,130
2018-08-28T09:39:07.753Z,130
2018-08-28T09:39:48.278Z,130
2018-08-28T09:40:28.758Z,130
2018-08-28T09:41:09.260Z,130
2018-08-28T09:41:49.727Z,130
2018-08-28T09:42:30.207Z,130
2018-08-28T09:43:10.715Z,130
2018-08-28T09:43:51.321Z,130
2018-08-28T09:44:31.759Z,130
2018-08-28T09:45:12.277Z,130
2018-08-28T09:45:52.720Z,130
2018-08-28T09:46:33.240Z,130
2018-08-28T09:47:13.722Z,130